Allamuchy, New Jersey
Current Conditions -  °F | °C
As of 4:53 PM on Thursday 27 Nov 2014 (Local Time) from KFWN Reporting Station
Overcast Overcast  
Wind Chill:   Ceiling: 3400
Heat Index:   Visibility: 10mi
Dew Point: -3°   Wind: 0mph
Humidity: 78%   Direction: NA
Pressure: 30.01"   Gusts: NA
Location:  40.92°N, 74.81°W
Report Text: KFWN 272153Z AUTO 00000KT 10SM OVC034 01/M03 A3001 RMK AO2 SLP165 T00061028
Loading
Personal Weather Stations






























Interactive Weather Map New forecast layout! Learn more

10-Day Weather Forecast

Advertisements
Track Severe Weather on mobile